createdAt,value
2023-04-18T00:00:17.451Z,10.55
2023-04-18T00:03:22.841Z,10.44
2023-04-18T00:06:27.469Z,10.68
2023-04-18T00:09:32.458Z,11.24
2023-04-18T00:12:37.375Z,11.27
2023-04-18T00:15:44.500Z,10.69
2023-04-18T00:18:49.084Z,11.40
2023-04-18T00:21:54.065Z,11.63
2023-04-18T00:24:58.565Z,11.56
2023-04-18T00:28:03.080Z,11.88
2023-04-18T00:31:07.157Z,11.82
2023-04-18T00:34:11.824Z,12.21
2023-04-18T00:37:16.044Z,12.10
2023-04-18T00:40:20.573Z,12.51
2023-04-18T00:43:28.095Z,12.83
2023-04-18T00:46:32.212Z,13.39
2023-04-18T00:49:36.853Z,12.79
2023-04-18T00:52:41.647Z,13.45
2023-04-18T00:55:46.018Z,14.07
2023-04-18T00:58:50.792Z,14.83
2023-04-18T01:01:55.990Z,15.37
2023-04-18T01:05:00.840Z,15.32
2023-04-18T01:08:07.195Z,15.91
2023-04-18T01:11:12.575Z,15.82
2023-04-18T01:14:17.247Z,15.62
2023-04-18T01:17:23.342Z,13.73
2023-04-18T01:20:28.824Z,14.78
2023-04-18T01:23:33.633Z,14.95
2023-04-18T01:26:37.801Z,13.80
2023-04-18T01:29:42.617Z,14.32
2023-04-18T01:32:46.728Z,14.34
2023-04-18T01:35:51.122Z,14.21
2023-04-18T01:38:56.456Z,14.82
2023-04-18T01:42:02.915Z,16.25
2023-04-18T01:45:08.761Z,16.24
2023-04-18T01:48:13.765Z,16.83
2023-04-18T01:51:19.432Z,16.89
2023-04-18T01:54:24.124Z,17.10
2023-04-18T01:57:29.776Z,17.01
2023-04-18T02:00:34.133Z,17.00
2023-04-18T02:03:38.591Z,16.83
2023-04-18T02:06:43.378Z,16.70
2023-04-18T02:09:53.535Z,16.30
2023-04-18T02:12:58.071Z,16.13
2023-04-18T02:16:03.142Z,16.22
2023-04-18T02:19:29.107Z,16.15
2023-04-18T02:22:33.655Z,15.99
2023-04-18T02:25:38.356Z,15.86
2023-04-18T02:28:42.649Z,15.91
2023-04-18T02:31:46.726Z,15.76
2023-04-18T02:34:52.052Z,15.54
2023-04-18T02:37:56.706Z,15.88
2023-04-18T02:41:01.069Z,16.20
2023-04-18T02:44:05.738Z,16.09
2023-04-18T02:47:12.998Z,16.18
2023-04-18T02:50:20.117Z,16.10
2023-04-18T02:53:25.914Z,15.97
2023-04-18T02:56:32.694Z,15.97
2023-04-18T03:00:08.138Z,15.75
2023-04-18T03:03:31.585Z,15.87
2023-04-18T03:06:56.954Z,15.71
2023-04-18T03:10:02.009Z,15.67
2023-04-18T03:13:11.155Z,16.06
2023-04-18T03:16:17.361Z,15.85
2023-04-18T03:19:22.661Z,15.79
2023-04-18T03:22:29.177Z,15.77
2023-04-18T03:25:35.931Z,15.66
2023-04-18T03:28:42.045Z,15.92
2023-04-18T03:31:47.132Z,15.57
2023-04-18T03:34:52.693Z,15.70
2023-04-18T03:37:57.529Z,15.68
2023-04-18T03:41:05.640Z,15.53
2023-04-18T03:44:13.898Z,15.69
2023-04-18T03:47:19.210Z,15.71
2023-04-18T03:50:32.012Z,15.69
2023-04-18T03:53:37.369Z,15.83
2023-04-18T03:56:42.541Z,15.76
2023-04-18T03:59:47.924Z,15.67
2023-04-18T04:02:52.398Z,15.97
2023-04-18T04:05:58.456Z,15.73
2023-04-18T04:09:03.005Z,15.56
2023-04-18T04:12:07.789Z,15.46
2023-04-18T04:15:13.506Z,15.41
2023-04-18T04:18:30.762Z,15.82
2023-04-18T04:21:37.700Z,15.53
2023-04-18T04:24:44.783Z,15.49
2023-04-18T04:27:54.439Z,15.71
2023-04-18T04:31:01.360Z,15.75
2023-04-18T04:34:05.880Z,15.65
2023-04-18T04:37:10.584Z,15.55
2023-04-18T04:40:24.667Z,15.53
2023-04-18T04:43:42.023Z,15.25
2023-04-18T04:46:50.680Z,15.17
2023-04-18T04:49:59.128Z,15.41
2023-04-18T04:53:02.896Z,15.21
2023-04-18T04:56:07.991Z,14.97
2023-04-18T04:59:12.470Z,14.92
2023-04-18T05:02:19.217Z,14.89
2023-04-18T05:05:23.868Z,14.96
2023-04-18T05:08:27.916Z,14.74
2023-04-18T05:11:32.343Z,14.93
2023-04-18T05:14:37.094Z,14.87
2023-04-18T05:17:41.580Z,14.70
2023-04-18T05:20:46.081Z,14.93
2023-04-18T05:23:50.549Z,14.91
2023-04-18T05:26:55.015Z,14.90
2023-04-18T05:29:59.579Z,14.83
2023-04-18T05:33:04.269Z,15.01
2023-04-18T05:36:09.572Z,14.88
2023-04-18T05:39:13.384Z,14.78
2023-04-18T05:42:17.981Z,14.59
2023-04-18T05:45:22.433Z,14.55
2023-04-18T05:48:27.129Z,14.43
2023-04-18T05:51:32.114Z,14.37
2023-04-18T05:54:36.692Z,14.39
2023-04-18T05:57:42.348Z,14.26
2023-04-18T06:00:48.802Z,14.50
2023-04-18T06:03:53.648Z,14.20
2023-04-18T06:06:58.181Z,14.21
2023-04-18T06:10:02.652Z,13.85
2023-04-18T06:13:07.310Z,13.63
2023-04-18T06:16:11.775Z,13.33
2023-04-18T06:19:16.145Z,13.63
2023-04-18T06:22:21.076Z,13.75
2023-04-18T06:25:26.671Z,13.65
2023-04-18T06:28:31.532Z,13.56
2023-04-18T06:31:36.217Z,13.16
2023-04-18T06:34:42.071Z,13.30
2023-04-18T06:37:46.825Z,12.86
2023-04-18T06:40:51.096Z,12.61
2023-04-18T06:44:03.439Z,13.13
2023-04-18T06:47:09.221Z,12.69
2023-04-18T06:50:13.590Z,12.72
2023-04-18T06:53:18.486Z,12.86
2023-04-18T06:56:22.399Z,12.95
2023-04-18T06:59:27.139Z,12.90
2023-04-18T07:02:32.026Z,12.94
2023-04-18T07:05:37.341Z,12.87
2023-04-18T07:08:41.771Z,12.45
2023-04-18T07:11:46.261Z,12.41
2023-04-18T07:14:50.688Z,12.66
2023-04-18T07:17:55.152Z,12.36
2023-04-18T07:20:59.692Z,12.15
2023-04-18T07:24:04.097Z,11.95
2023-04-18T07:27:10.275Z,11.82
2023-04-18T07:30:14.822Z,11.81
2023-04-18T07:33:18.811Z,11.93
2023-04-18T07:36:23.319Z,12.20
2023-04-18T07:39:27.878Z,12.26
2023-04-18T07:42:31.976Z,11.85
2023-04-18T07:45:39.278Z,11.89
2023-04-18T07:48:44.152Z,12.06
2023-04-18T07:51:48.085Z,12.00
2023-04-18T07:54:52.738Z,11.67
2023-04-18T07:57:57.280Z,11.54
2023-04-18T08:01:01.980Z,11.71
2023-04-18T08:04:06.768Z,11.46
2023-04-18T08:07:11.748Z,11.09
2023-04-18T08:10:16.494Z,11.18
2023-04-18T08:13:20.904Z,11.21
2023-04-18T08:16:24.973Z,11.29
2023-04-18T08:19:28.703Z,11.58
2023-04-18T08:22:33.358Z,11.38
2023-04-18T08:25:38.254Z,11.22
2023-04-18T08:28:44.144Z,11.45
2023-04-18T08:31:50.364Z,11.43
2023-04-18T08:34:54.927Z,11.08
2023-04-18T08:37:59.524Z,11.50
2023-04-18T08:41:03.941Z,11.77
2023-04-18T08:44:08.383Z,11.69
2023-04-18T08:47:13.716Z,11.55
2023-04-18T08:50:17.920Z,11.60
2023-04-18T08:53:22.709Z,11.66
2023-04-18T08:56:28.090Z,11.34
2023-04-18T08:59:33.250Z,11.15
2023-04-18T09:02:45.619Z,11.11
2023-04-18T09:06:09.179Z,10.70
2023-04-18T09:09:14.331Z,10.77
2023-04-18T09:12:24.258Z,10.99
2023-04-18T09:15:30.057Z,10.67
2023-04-18T09:18:35.001Z,10.61
2023-04-18T09:21:49.522Z,10.41
2023-04-18T09:24:59.110Z,10.52
2023-04-18T09:28:04.522Z,10.47
2023-04-18T09:31:12.583Z,10.37
2023-04-18T09:34:27.222Z,10.13
2023-04-18T09:37:32.014Z,10.12
2023-04-18T09:40:36.318Z,9.86
2023-04-18T09:43:40.850Z,9.80
2023-04-18T09:46:47.658Z,9.65
2023-04-18T09:49:52.329Z,9.80
2023-04-18T09:52:57.096Z,9.68
2023-04-18T09:56:07.307Z,9.54
2023-04-18T09:59:13.234Z,9.59
2023-04-18T10:02:24.769Z,9.42
2023-04-18T10:05:34.066Z,9.43
2023-04-18T10:08:40.925Z,9.33
2023-04-18T10:11:46.080Z,9.03
2023-04-18T10:14:50.689Z,8.95
2023-04-18T10:18:04.403Z,9.06
2023-04-18T10:21:10.441Z,9.07
2023-04-18T10:24:46.705Z,8.96
2023-04-18T10:28:00.501Z,8.75
2023-04-18T10:31:05.872Z,8.66
2023-04-18T10:34:16.923Z,8.81
2023-04-18T10:37:21.135Z,8.67
2023-04-18T10:40:35.485Z,8.61
2023-04-18T10:44:09.145Z,8.73
2023-04-18T10:47:21.828Z,8.82
2023-04-18T10:50:27.661Z,8.63
2023-04-18T10:53:32.154Z,8.60
2023-04-18T10:56:36.862Z,8.48
2023-04-18T10:59:44.683Z,8.51
2023-04-18T11:02:56.870Z,8.56
2023-04-18T11:06:06.670Z,8.49
2023-04-18T11:09:15.666Z,8.36
2023-04-18T11:12:19.990Z,8.20
2023-04-18T11:15:26.306Z,8.26
2023-04-18T11:18:42.887Z,8.31
2023-04-18T11:21:47.478Z,8.50
2023-04-18T11:24:51.780Z,8.00
2023-04-18T11:27:56.501Z,7.88
2023-04-18T11:31:03.621Z,7.72
2023-04-18T11:34:08.084Z,7.91
2023-04-18T11:37:12.707Z,7.77
2023-04-18T11:40:17.683Z,7.99
2023-04-18T11:43:26.293Z,7.84
2023-04-18T11:46:43.197Z,7.68
2023-04-18T11:49:47.644Z,7.69
2023-04-18T11:52:55.082Z,7.72
2023-04-18T11:56:00.499Z,7.61
2023-04-18T11:59:12.699Z,7.84
2023-04-18T12:02:18.835Z,7.75
2023-04-18T12:05:31.921Z,7.65
2023-04-18T12:08:36.637Z,7.16
2023-04-18T12:11:43.344Z,7.66
2023-04-18T12:14:47.594Z,7.90
2023-04-18T12:17:55.319Z,7.84
2023-04-18T12:21:04.671Z,7.63
2023-04-18T12:24:19.170Z,7.86
2023-04-18T12:27:23.658Z,7.63
2023-04-18T12:30:37.539Z,7.93
2023-04-18T12:33:41.991Z,7.85
2023-04-18T12:36:46.435Z,7.63
2023-04-18T12:39:51.475Z,7.74
2023-04-18T12:42:56.839Z,7.85
2023-04-18T12:46:01.456Z,7.73
2023-04-18T12:49:05.331Z,7.83
2023-04-18T12:52:09.764Z,7.87
2023-04-18T12:55:15.457Z,7.98
2023-04-18T12:58:19.533Z,8.01
2023-04-18T13:01:23.414Z,7.92
2023-04-18T13:04:28.184Z,7.79
2023-04-18T13:07:33.814Z,7.69
2023-04-18T13:10:38.524Z,7.88
2023-04-18T13:13:42.981Z,7.97
2023-04-18T13:16:47.269Z,7.95
2023-04-18T13:19:52.774Z,8.30
2023-04-18T13:22:57.635Z,8.24
2023-04-18T13:26:02.175Z,7.64
2023-04-18T13:29:06.921Z,7.62
2023-04-18T13:32:11.425Z,7.38
2023-04-18T13:35:16.143Z,7.67
2023-04-18T13:38:20.654Z,7.63
2023-04-18T13:41:25.276Z,7.61
2023-04-18T13:44:32.711Z,7.67
2023-04-18T13:47:37.581Z,7.51
2023-04-18T13:50:41.915Z,7.56
2023-04-18T13:53:46.452Z,7.66
2023-04-18T13:56:51.121Z,7.67
2023-04-18T13:59:55.612Z,7.50
2023-04-18T14:03:00.444Z,7.45
2023-04-18T14:06:06.509Z,7.29
2023-04-18T14:09:10.720Z,7.31
2023-04-18T14:12:14.797Z,7.47
2023-04-18T14:15:19.349Z,7.68
2023-04-18T14:18:25.429Z,7.34
2023-04-18T14:21:30.458Z,7.67
2023-04-18T14:24:37.178Z,7.48
2023-04-18T14:27:41.191Z,7.39
2023-04-18T14:30:45.551Z,7.29
2023-04-18T14:33:49.999Z,7.20
2023-04-18T14:36:54.361Z,7.22
2023-04-18T14:39:59.007Z,7.19
2023-04-18T14:43:04.271Z,7.22
2023-04-18T14:46:18.176Z,7.13
2023-04-18T14:49:22.677Z,7.11
2023-04-18T14:52:27.198Z,7.01
2023-04-18T14:55:32.059Z,6.93
2023-04-18T14:58:36.007Z,6.99
2023-04-18T15:01:41.583Z,6.86
2023-04-18T15:04:46.472Z,7.08
2023-04-18T15:07:53.038Z,6.89
2023-04-18T15:10:57.777Z,6.70
2023-04-18T15:14:02.107Z,6.80
2023-04-18T15:17:07.035Z,6.89
2023-04-18T15:20:11.836Z,6.96
2023-04-18T15:23:16.712Z,6.95
2023-04-18T15:26:20.685Z,6.93
2023-04-18T15:29:25.047Z,6.89
2023-04-18T15:32:29.399Z,6.97
2023-04-18T15:35:33.944Z,7.02
2023-04-18T15:38:37.830Z,7.16
2023-04-18T15:41:42.936Z,7.26
2023-04-18T15:44:47.732Z,7.53
2023-04-18T15:47:52.534Z,7.49
2023-04-18T15:50:56.558Z,7.21
2023-04-18T15:54:00.971Z,7.10
2023-04-18T15:57:05.651Z,7.18
2023-04-18T16:00:30.090Z,7.10
2023-04-18T16:03:34.778Z,7.04
2023-04-18T16:06:38.676Z,6.69
2023-04-18T16:09:42.980Z,7.08
2023-04-18T16:12:47.447Z,7.17
2023-04-18T16:15:52.058Z,7.17
2023-04-18T16:18:56.532Z,7.24
2023-04-18T16:22:00.628Z,7.09
2023-04-18T16:25:05.593Z,7.05
2023-04-18T16:28:09.843Z,7.02
2023-04-18T16:31:16.697Z,6.99
2023-04-18T16:34:21.346Z,7.04
2023-04-18T16:37:25.114Z,7.23
2023-04-18T16:40:31.398Z,7.20
2023-04-18T16:43:38.803Z,7.13
2023-04-18T16:46:43.283Z,7.18
2023-04-18T16:49:48.600Z,7.15
2023-04-18T16:52:52.778Z,6.96
2023-04-18T16:55:57.003Z,7.02
2023-04-18T16:59:01.780Z,7.02
2023-04-18T17:02:06.394Z,6.99
2023-04-18T17:05:12.018Z,7.27
2023-04-18T17:08:16.798Z,7.19
2023-04-18T17:11:21.885Z,7.22
2023-04-18T17:14:26.377Z,6.92
2023-04-18T17:17:31.460Z,6.71
2023-04-18T17:20:36.744Z,6.46
2023-04-18T17:23:43.134Z,6.32
2023-04-18T17:26:47.569Z,6.25
2023-04-18T17:29:52.187Z,6.39
2023-04-18T17:32:56.974Z,6.42
2023-04-18T17:36:01.213Z,6.43
2023-04-18T17:39:08.542Z,6.36
2023-04-18T17:42:12.877Z,6.45
2023-04-18T17:45:17.526Z,6.60
2023-04-18T17:48:22.320Z,6.65
2023-04-18T17:51:28.124Z,6.37
2023-04-18T17:54:32.856Z,6.20
2023-04-18T17:57:37.220Z,6.43
2023-04-18T18:00:41.673Z,6.96
2023-04-18T18:03:46.721Z,7.18
2023-04-18T18:06:58.233Z,7.14
2023-04-18T18:10:02.648Z,7.34
2023-04-18T18:13:07.585Z,7.35
2023-04-18T18:16:11.641Z,7.06
2023-04-18T18:19:16.288Z,6.93
2023-04-18T18:22:22.150Z,7.06
2023-04-18T18:25:26.152Z,6.75
2023-04-18T18:28:30.679Z,7.01
2023-04-18T18:31:35.224Z,7.09
2023-04-18T18:34:39.198Z,6.62
2023-04-18T18:37:43.065Z,6.57
2023-04-18T18:40:47.406Z,6.85
2023-04-18T18:43:52.473Z,6.87
2023-04-18T18:46:57.613Z,6.78
2023-04-18T18:50:02.141Z,6.86
2023-04-18T18:53:06.995Z,6.91
2023-04-18T18:56:11.449Z,6.81
2023-04-18T18:59:16.562Z,6.74
2023-04-18T19:02:21.189Z,6.81
2023-04-18T19:05:25.907Z,6.72
2023-04-18T19:08:30.348Z,6.54
2023-04-18T19:11:34.352Z,6.73
2023-04-18T19:14:39.768Z,6.62
2023-04-18T19:17:44.802Z,6.62
2023-04-18T19:20:51.665Z,6.44
2023-04-18T19:23:55.717Z,6.52
2023-04-18T19:27:00.606Z,6.75
2023-04-18T19:30:05.671Z,6.80
2023-04-18T19:33:10.837Z,6.94
2023-04-18T19:36:15.071Z,7.04
2023-04-18T19:39:19.049Z,6.87
2023-04-18T19:42:23.286Z,6.73
2023-04-18T19:45:27.766Z,6.53
2023-04-18T19:48:32.206Z,6.62
2023-04-18T19:51:36.733Z,6.39
2023-04-18T19:54:42.212Z,6.07
2023-04-18T19:57:46.676Z,6.39
2023-04-18T20:00:51.291Z,6.61
2023-04-18T20:03:59.364Z,6.46
2023-04-18T20:07:04.179Z,6.85
2023-04-18T20:10:09.684Z,6.59
2023-04-18T20:13:14.414Z,6.79
2023-04-18T20:16:18.376Z,6.42
2023-04-18T20:19:26.368Z,6.43
2023-04-18T20:22:33.092Z,6.52
2023-04-18T20:25:37.431Z,6.60
2023-04-18T20:28:42.089Z,6.64
2023-04-18T20:31:45.941Z,6.51
2023-04-18T20:34:50.268Z,6.53
2023-04-18T20:37:55.675Z,6.47
2023-04-18T20:41:01.329Z,6.52
2023-04-18T20:44:06.209Z,6.93
2023-04-18T20:47:10.762Z,6.90
2023-04-18T20:50:16.989Z,6.79
2023-04-18T20:53:23.137Z,6.63
2023-04-18T20:56:27.740Z,6.79
2023-04-18T20:59:32.337Z,7.10
2023-04-18T21:02:37.571Z,7.22
2023-04-18T21:05:41.586Z,7.16
2023-04-18T21:08:46.056Z,6.73
2023-04-18T21:11:50.450Z,6.80
2023-04-18T21:14:54.985Z,6.87
2023-04-18T21:17:59.491Z,6.81
2023-04-18T21:21:03.696Z,6.95
2023-04-18T21:24:08.268Z,6.97
2023-04-18T21:27:12.807Z,7.14
2023-04-18T21:30:17.242Z,7.21
2023-04-18T21:33:21.684Z,7.22
2023-04-18T21:36:31.526Z,7.45
2023-04-18T21:39:36.033Z,7.47
2023-04-18T21:42:40.594Z,7.43
2023-04-18T21:45:47.139Z,7.59
2023-04-18T21:48:51.492Z,7.63
2023-04-18T21:51:55.816Z,7.54
2023-04-18T21:55:00.288Z,7.36
2023-04-18T21:58:06.391Z,7.71
2023-04-18T22:01:10.952Z,7.08
2023-04-18T22:04:16.806Z,7.39
2023-04-18T22:07:21.185Z,7.53
2023-04-18T22:10:25.741Z,7.47
2023-04-18T22:13:35.372Z,7.45
2023-04-18T22:16:40.147Z,7.17
2023-04-18T22:19:45.076Z,7.22
2023-04-18T22:22:51.998Z,7.31
2023-04-18T22:25:56.747Z,7.18
2023-04-18T22:29:01.022Z,7.36
2023-04-18T22:32:05.691Z,7.22
2023-04-18T22:35:10.668Z,7.31
2023-04-18T22:38:15.299Z,6.89
2023-04-18T22:41:19.342Z,7.29
2023-04-18T22:44:24.650Z,7.70
2023-04-18T22:47:30.947Z,7.75
2023-04-18T22:50:38.575Z,7.63
2023-04-18T22:53:43.059Z,7.70
2023-04-18T22:56:48.323Z,7.72
2023-04-18T22:59:52.302Z,7.64
2023-04-18T23:02:56.832Z,7.70
2023-04-18T23:06:02.157Z,7.76
2023-04-18T23:09:10.338Z,7.56
2023-04-18T23:12:14.702Z,7.63
2023-04-18T23:15:19.462Z,7.87
2023-04-18T23:18:23.868Z,7.54
2023-04-18T23:21:28.950Z,7.64
2023-04-18T23:24:33.522Z,7.67
2023-04-18T23:27:37.947Z,7.77
2023-04-18T23:30:42.186Z,7.79
2023-04-18T23:33:47.651Z,7.91
2023-04-18T23:36:52.052Z,7.90
2023-04-18T23:39:56.417Z,7.88
2023-04-18T23:43:00.780Z,7.86
2023-04-18T23:46:04.924Z,7.76
2023-04-18T23:49:09.444Z,7.83
2023-04-18T23:52:13.894Z,7.70
2023-04-18T23:55:18.762Z,7.77
2023-04-18T23:58:23.136Z,7.73
